sensor_id;sensor_type;location;lat;lon;timestamp;P1;durP1;ratioP1;P2;durP2;ratioP2
74900;SDS011;63461;51.416;6.758;2023-03-26T00:00:46;22.53;;;4.27;;
74900;SDS011;63461;51.416;6.758;2023-03-26T00:03:18;27.10;;;3.90;;
74900;SDS011;63461;51.416;6.758;2023-03-26T00:05:44;32.83;;;5.07;;
74900;SDS011;63461;51.416;6.758;2023-03-26T00:08:14;21.00;;;3.90;;
74900;SDS011;63461;51.416;6.758;2023-03-26T00:10:41;25.37;;;3.70;;
74900;SDS011;63461;51.416;6.758;2023-03-26T00:13:08;29.60;;;3.83;;
74900;SDS011;63461;51.416;6.758;2023-03-26T00:15:35;28.33;;;4.60;;
74900;SDS011;63461;51.416;6.758;2023-03-26T00:18:01;22.00;;;4.37;;
74900;SDS011;63461;51.416;6.758;2023-03-26T00:20:28;22.80;;;3.90;;
74900;SDS011;63461;51.416;6.758;2023-03-26T00:22:57;26.30;;;4.03;;
74900;SDS011;63461;51.416;6.758;2023-03-26T00:25:25;26.73;;;4.70;;
74900;SDS011;63461;51.416;6.758;2023-03-26T00:27:51;26.97;;;4.27;;
74900;SDS011;63461;51.416;6.758;2023-03-26T00:30:18;24.27;;;4.03;;
74900;SDS011;63461;51.416;6.758;2023-03-26T00:32:44;22.40;;;4.20;;
74900;SDS011;63461;51.416;6.758;2023-03-26T00:35:10;26.73;;;4.10;;
74900;SDS011;63461;51.416;6.758;2023-03-26T00:37:37;27.60;;;4.17;;
74900;SDS011;63461;51.416;6.758;2023-03-26T00:40:06;26.93;;;3.90;;
74900;SDS011;63461;51.416;6.758;2023-03-26T00:42:35;29.73;;;4.23;;
74900;SDS011;63461;51.416;6.758;2023-03-26T00:45:05;19.67;;;3.67;;
74900;SDS011;63461;51.416;6.758;2023-03-26T00:47:31;29.50;;;3.70;;
74900;SDS011;63461;51.416;6.758;2023-03-26T00:49:58;25.73;;;3.83;;
74900;SDS011;63461;51.416;6.758;2023-03-26T00:52:24;36.53;;;4.33;;
74900;SDS011;63461;51.416;6.758;2023-03-26T00:54:52;20.57;;;3.43;;
74900;SDS011;63461;51.416;6.758;2023-03-26T00:57:19;26.83;;;3.80;;
74900;SDS011;63461;51.416;6.758;2023-03-26T00:59:48;21.63;;;3.43;;
74900;SDS011;63461;51.416;6.758;2023-03-26T01:02:15;24.07;;;3.60;;
74900;SDS011;63461;51.416;6.758;2023-03-26T01:04:46;24.50;;;3.40;;
74900;SDS011;63461;51.416;6.758;2023-03-26T01:07:21;21.63;;;3.73;;
74900;SDS011;63461;51.416;6.758;2023-03-26T01:09:57;27.13;;;3.33;;
74900;SDS011;63461;51.416;6.758;2023-03-26T01:12:28;23.43;;;4.13;;
74900;SDS011;63461;51.416;6.758;2023-03-26T01:14:57;19.07;;;3.33;;
74900;SDS011;63461;51.416;6.758;2023-03-26T01:17:25;24.63;;;3.70;;
74900;SDS011;63461;51.416;6.758;2023-03-26T01:20:06;30.13;;;4.20;;
74900;SDS011;63461;51.416;6.758;2023-03-26T01:22:45;26.17;;;3.40;;
74900;SDS011;63461;51.416;6.758;2023-03-26T01:25:16;26.63;;;3.50;;
74900;SDS011;63461;51.416;6.758;2023-03-26T01:27:47;22.77;;;3.00;;
74900;SDS011;63461;51.416;6.758;2023-03-26T01:32:58;24.23;;;4.40;;
74900;SDS011;63461;51.416;6.758;2023-03-26T01:35:55;30.97;;;4.37;;
74900;SDS011;63461;51.416;6.758;2023-03-26T01:38:42;21.70;;;3.67;;
74900;SDS011;63461;51.416;6.758;2023-03-26T01:44:09;21.43;;;3.20;;
74900;SDS011;63461;51.416;6.758;2023-03-26T01:46:59;19.73;;;3.00;;
74900;SDS011;63461;51.416;6.758;2023-03-26T01:49:28;27.30;;;3.60;;
74900;SDS011;63461;51.416;6.758;2023-03-26T01:51:54;26.27;;;3.43;;
74900;SDS011;63461;51.416;6.758;2023-03-26T01:54:22;24.60;;;4.27;;
74900;SDS011;63461;51.416;6.758;2023-03-26T02:10:24;27.13;;;3.83;;
74900;SDS011;63461;51.416;6.758;2023-03-26T02:12:55;19.90;;;4.00;;
74900;SDS011;63461;51.416;6.758;2023-03-26T02:15:22;27.53;;;3.77;;
74900;SDS011;63461;51.416;6.758;2023-03-26T02:17:48;25.27;;;3.63;;
74900;SDS011;63461;51.416;6.758;2023-03-26T02:20:16;22.67;;;3.77;;
74900;SDS011;63461;51.416;6.758;2023-03-26T02:22:44;21.40;;;3.30;;
74900;SDS011;63461;51.416;6.758;2023-03-26T02:25:13;21.20;;;3.33;;
74900;SDS011;63461;51.416;6.758;2023-03-26T02:27:45;25.07;;;3.70;;
74900;SDS011;63461;51.416;6.758;2023-03-26T02:30:13;26.37;;;4.67;;
74900;SDS011;63461;51.416;6.758;2023-03-26T02:32:43;29.83;;;4.00;;
74900;SDS011;63461;51.416;6.758;2023-03-26T02:35:10;23.17;;;3.53;;
74900;SDS011;63461;51.416;6.758;2023-03-26T02:37:37;23.47;;;3.70;;
74900;SDS011;63461;51.416;6.758;2023-03-26T02:40:12;19.97;;;3.67;;
74900;SDS011;63461;51.416;6.758;2023-03-26T02:42:40;23.07;;;3.63;;
74900;SDS011;63461;51.416;6.758;2023-03-26T02:45:07;24.80;;;3.30;;
74900;SDS011;63461;51.416;6.758;2023-03-26T02:47:53;21.33;;;3.73;;
74900;SDS011;63461;51.416;6.758;2023-03-26T02:50:40;22.83;;;3.37;;
74900;SDS011;63461;51.416;6.758;2023-03-26T02:53:30;24.97;;;3.70;;
74900;SDS011;63461;51.416;6.758;2023-03-26T02:56:30;22.60;;;4.13;;
74900;SDS011;63461;51.416;6.758;2023-03-26T02:59:08;18.40;;;3.27;;
74900;SDS011;63461;51.416;6.758;2023-03-26T03:01:34;29.70;;;4.43;;
74900;SDS011;63461;51.416;6.758;2023-03-26T03:04:00;30.70;;;4.07;;
74900;SDS011;63461;51.416;6.758;2023-03-26T03:06:37;22.63;;;4.10;;
74900;SDS011;63461;51.416;6.758;2023-03-26T03:09:05;22.37;;;4.63;;
74900;SDS011;63461;51.416;6.758;2023-03-26T03:11:35;27.60;;;4.97;;
74900;SDS011;63461;51.416;6.758;2023-03-26T03:14:06;27.77;;;5.60;;
74900;SDS011;63461;51.416;6.758;2023-03-26T03:16:32;23.47;;;4.33;;
74900;SDS011;63461;51.416;6.758;2023-03-26T03:19:09;21.13;;;4.70;;
74900;SDS011;63461;51.416;6.758;2023-03-26T03:21:38;29.37;;;4.70;;
74900;SDS011;63461;51.416;6.758;2023-03-26T03:24:05;33.00;;;5.27;;
74900;SDS011;63461;51.416;6.758;2023-03-26T03:26:35;26.93;;;4.23;;
74900;SDS011;63461;51.416;6.758;2023-03-26T03:29:13;28.23;;;5.00;;
74900;SDS011;63461;51.416;6.758;2023-03-26T03:31:39;26.73;;;4.63;;
74900;SDS011;63461;51.416;6.758;2023-03-26T03:34:13;32.33;;;4.37;;
74900;SDS011;63461;51.416;6.758;2023-03-26T03:36:44;24.43;;;4.10;;
74900;SDS011;63461;51.416;6.758;2023-03-26T03:39:23;25.03;;;4.20;;
74900;SDS011;63461;51.416;6.758;2023-03-26T03:41:49;22.30;;;3.90;;
74900;SDS011;63461;51.416;6.758;2023-03-26T03:44:16;27.50;;;4.10;;
74900;SDS011;63461;51.416;6.758;2023-03-26T03:46:41;23.57;;;4.03;;
74900;SDS011;63461;51.416;6.758;2023-03-26T03:49:07;36.00;;;4.37;;
74900;SDS011;63461;51.416;6.758;2023-03-26T03:51:36;26.00;;;3.83;;
74900;SDS011;63461;51.416;6.758;2023-03-26T03:54:05;27.97;;;4.40;;
74900;SDS011;63461;51.416;6.758;2023-03-26T03:56:42;21.30;;;3.43;;
74900;SDS011;63461;51.416;6.758;2023-03-26T03:59:13;21.10;;;3.33;;
74900;SDS011;63461;51.416;6.758;2023-03-26T04:01:40;28.13;;;3.87;;
74900;SDS011;63461;51.416;6.758;2023-03-26T04:04:29;23.23;;;3.20;;
74900;SDS011;63461;51.416;6.758;2023-03-26T04:06:59;30.30;;;4.77;;
74900;SDS011;63461;51.416;6.758;2023-03-26T04:09:30;24.53;;;3.60;;
74900;SDS011;63461;51.416;6.758;2023-03-26T04:12:01;21.53;;;3.43;;
74900;SDS011;63461;51.416;6.758;2023-03-26T04:14:39;23.53;;;3.53;;
74900;SDS011;63461;51.416;6.758;2023-03-26T04:17:16;18.47;;;3.57;;
74900;SDS011;63461;51.416;6.758;2023-03-26T04:19:43;19.73;;;4.10;;
74900;SDS011;63461;51.416;6.758;2023-03-26T04:22:11;25.53;;;3.40;;
74900;SDS011;63461;51.416;6.758;2023-03-26T04:24:47;23.33;;;3.30;;
74900;SDS011;63461;51.416;6.758;2023-03-26T04:27:32;22.47;;;3.50;;
74900;SDS011;63461;51.416;6.758;2023-03-26T04:30:16;24.03;;;3.43;;
74900;SDS011;63461;51.416;6.758;2023-03-26T04:32:47;18.70;;;3.17;;
74900;SDS011;63461;51.416;6.758;2023-03-26T04:35:14;20.77;;;3.73;;
74900;SDS011;63461;51.416;6.758;2023-03-26T04:37:44;22.57;;;3.40;;
74900;SDS011;63461;51.416;6.758;2023-03-26T04:40:19;19.30;;;3.20;;
74900;SDS011;63461;51.416;6.758;2023-03-26T04:43:12;21.57;;;4.40;;
74900;SDS011;63461;51.416;6.758;2023-03-26T04:46:01;19.20;;;2.97;;
74900;SDS011;63461;51.416;6.758;2023-03-26T04:48:29;19.67;;;3.43;;
74900;SDS011;63461;51.416;6.758;2023-03-26T04:50:56;25.67;;;3.93;;
74900;SDS011;63461;51.416;6.758;2023-03-26T04:53:22;18.90;;;3.30;;
74900;SDS011;63461;51.416;6.758;2023-03-26T04:56:08;28.20;;;4.20;;
74900;SDS011;63461;51.416;6.758;2023-03-26T05:01:58;20.63;;;2.97;;
74900;SDS011;63461;51.416;6.758;2023-03-26T05:04:25;25.00;;;3.30;;
74900;SDS011;63461;51.416;6.758;2023-03-26T05:06:54;22.27;;;3.77;;
74900;SDS011;63461;51.416;6.758;2023-03-26T05:09:32;19.03;;;3.17;;
74900;SDS011;63461;51.416;6.758;2023-03-26T05:12:09;23.10;;;3.57;;
74900;SDS011;63461;51.416;6.758;2023-03-26T05:14:47;16.83;;;2.93;;
74900;SDS011;63461;51.416;6.758;2023-03-26T05:17:18;16.40;;;2.93;;
74900;SDS011;63461;51.416;6.758;2023-03-26T05:19:46;20.07;;;4.03;;
74900;SDS011;63461;51.416;6.758;2023-03-26T05:22:12;16.60;;;3.17;;
74900;SDS011;63461;51.416;6.758;2023-03-26T05:24:53;22.63;;;2.73;;
74900;SDS011;63461;51.416;6.758;2023-03-26T05:27:20;17.87;;;3.17;;
74900;SDS011;63461;51.416;6.758;2023-03-26T05:29:46;18.10;;;3.17;;
74900;SDS011;63461;51.416;6.758;2023-03-26T05:32:12;19.17;;;3.30;;
74900;SDS011;63461;51.416;6.758;2023-03-26T05:34:38;18.97;;;2.97;;
74900;SDS011;63461;51.416;6.758;2023-03-26T05:37:05;24.40;;;3.67;;
74900;SDS011;63461;51.416;6.758;2023-03-26T05:39:43;18.83;;;3.53;;
74900;SDS011;63461;51.416;6.758;2023-03-26T05:42:12;20.13;;;3.07;;
74900;SDS011;63461;51.416;6.758;2023-03-26T05:44:58;35.50;;;3.60;;
74900;SDS011;63461;51.416;6.758;2023-03-26T05:47:27;16.17;;;2.93;;
74900;SDS011;63461;51.416;6.758;2023-03-26T05:49:53;19.40;;;3.33;;
74900;SDS011;63461;51.416;6.758;2023-03-26T05:52:19;21.80;;;3.03;;
74900;SDS011;63461;51.416;6.758;2023-03-26T05:55:08;21.60;;;3.40;;
74900;SDS011;63461;51.416;6.758;2023-03-26T05:57:52;23.10;;;3.13;;
74900;SDS011;63461;51.416;6.758;2023-03-26T06:00:41;19.93;;;3.10;;
74900;SDS011;63461;51.416;6.758;2023-03-26T06:03:13;19.70;;;3.30;;
74900;SDS011;63461;51.416;6.758;2023-03-26T06:06:07;13.83;;;2.87;;
74900;SDS011;63461;51.416;6.758;2023-03-26T06:08:45;18.40;;;3.37;;
74900;SDS011;63461;51.416;6.758;2023-03-26T06:11:16;11.57;;;2.93;;
74900;SDS011;63461;51.416;6.758;2023-03-26T06:13:43;18.70;;;2.87;;
74900;SDS011;63461;51.416;6.758;2023-03-26T06:16:10;16.03;;;3.10;;
74900;SDS011;63461;51.416;6.758;2023-03-26T06:18:42;22.73;;;3.40;;
74900;SDS011;63461;51.416;6.758;2023-03-26T06:21:27;20.30;;;3.20;;
74900;SDS011;63461;51.416;6.758;2023-03-26T06:23:58;14.03;;;2.93;;
74900;SDS011;63461;51.416;6.758;2023-03-26T06:26:46;16.97;;;2.60;;
74900;SDS011;63461;51.416;6.758;2023-03-26T06:29:34;14.43;;;3.20;;
74900;SDS011;63461;51.416;6.758;2023-03-26T06:32:18;14.60;;;3.27;;
74900;SDS011;63461;51.416;6.758;2023-03-26T06:34:48;16.03;;;3.20;;
74900;SDS011;63461;51.416;6.758;2023-03-26T06:37:14;18.40;;;2.80;;
74900;SDS011;63461;51.416;6.758;2023-03-26T06:39:42;19.57;;;2.93;;
74900;SDS011;63461;51.416;6.758;2023-03-26T06:42:14;15.40;;;3.00;;
74900;SDS011;63461;51.416;6.758;2023-03-26T06:44:49;13.53;;;2.80;;
74900;SDS011;63461;51.416;6.758;2023-03-26T06:47:30;17.73;;;2.90;;
74900;SDS011;63461;51.416;6.758;2023-03-26T06:50:30;17.30;;;2.60;;
74900;SDS011;63461;51.416;6.758;2023-03-26T06:53:15;16.93;;;2.70;;
74900;SDS011;63461;51.416;6.758;2023-03-26T06:56:03;17.10;;;3.50;;
74900;SDS011;63461;51.416;6.758;2023-03-26T06:58:41;10.60;;;2.57;;
74900;SDS011;63461;51.416;6.758;2023-03-26T07:01:26;18.43;;;3.27;;
74900;SDS011;63461;51.416;6.758;2023-03-26T07:04:15;15.23;;;3.37;;
74900;SDS011;63461;51.416;6.758;2023-03-26T07:07:07;12.57;;;2.50;;
74900;SDS011;63461;51.416;6.758;2023-03-26T07:09:51;19.20;;;3.10;;
74900;SDS011;63461;51.416;6.758;2023-03-26T07:12:37;19.73;;;3.63;;
74900;SDS011;63461;51.416;6.758;2023-03-26T07:15:29;14.70;;;3.60;;
74900;SDS011;63461;51.416;6.758;2023-03-26T07:18:08;19.70;;;3.17;;
74900;SDS011;63461;51.416;6.758;2023-03-26T07:20:39;24.73;;;3.63;;
74900;SDS011;63461;51.416;6.758;2023-03-26T07:23:08;19.93;;;2.83;;
74900;SDS011;63461;51.416;6.758;2023-03-26T07:25:55;20.10;;;3.50;;
74900;SDS011;63461;51.416;6.758;2023-03-26T07:28:32;18.93;;;3.00;;
74900;SDS011;63461;51.416;6.758;2023-03-26T07:31:23;15.10;;;2.87;;
74900;SDS011;63461;51.416;6.758;2023-03-26T07:34:21;20.70;;;3.37;;
74900;SDS011;63461;51.416;6.758;2023-03-26T07:44:03;14.27;;;3.30;;
74900;SDS011;63461;51.416;6.758;2023-03-26T07:46:35;20.87;;;3.23;;
74900;SDS011;63461;51.416;6.758;2023-03-26T07:49:30;20.13;;;3.73;;
74900;SDS011;63461;51.416;6.758;2023-03-26T07:52:15;12.50;;;2.57;;
74900;SDS011;63461;51.416;6.758;2023-03-26T07:55:04;21.53;;;3.73;;
74900;SDS011;63461;51.416;6.758;2023-03-26T08:00:41;15.27;;;3.07;;
74900;SDS011;63461;51.416;6.758;2023-03-26T08:09:26;18.67;;;3.30;;
74900;SDS011;63461;51.416;6.758;2023-03-26T08:15:11;17.60;;;3.13;;
74900;SDS011;63461;51.416;6.758;2023-03-26T08:20:39;11.10;;;2.73;;
74900;SDS011;63461;51.416;6.758;2023-03-26T08:23:13;15.43;;;2.80;;
74900;SDS011;63461;51.416;6.758;2023-03-26T08:31:03;14.10;;;2.93;;
74900;SDS011;63461;51.416;6.758;2023-03-26T08:33:29;11.77;;;2.70;;
74900;SDS011;63461;51.416;6.758;2023-03-26T08:35:56;14.67;;;2.93;;
74900;SDS011;63461;51.416;6.758;2023-03-26T08:38:22;16.07;;;2.90;;
74900;SDS011;63461;51.416;6.758;2023-03-26T08:46:44;17.70;;;3.30;;
74900;SDS011;63461;51.416;6.758;2023-03-26T08:57:58;11.10;;;3.30;;
74900;SDS011;63461;51.416;6.758;2023-03-26T09:09:15;36.17;;;13.10;;
74900;SDS011;63461;51.416;6.758;2023-03-26T09:12:20;92.63;;;28.17;;
74900;SDS011;63461;51.416;6.758;2023-03-26T09:15:25;65.13;;;24.00;;
74900;SDS011;63461;51.416;6.758;2023-03-26T09:31:41;219.10;;;72.73;;
74900;SDS011;63461;51.416;6.758;2023-03-26T09:34:26;311.43;;;101.97;;
74900;SDS011;63461;51.416;6.758;2023-03-26T09:42:07;50.13;;;14.63;;
74900;SDS011;63461;51.416;6.758;2023-03-26T09:45:05;23.93;;;5.97;;
74900;SDS011;63461;51.416;6.758;2023-03-26T09:50:36;13.20;;;4.40;;
74900;SDS011;63461;51.416;6.758;2023-03-26T09:55:56;17.27;;;4.80;;
74900;SDS011;63461;51.416;6.758;2023-03-26T10:04:44;13.90;;;4.97;;
74900;SDS011;63461;51.416;6.758;2023-03-26T10:18:53;7.23;;;2.20;;
74900;SDS011;63461;51.416;6.758;2023-03-26T10:35:40;9.40;;;2.90;;
74900;SDS011;63461;51.416;6.758;2023-03-26T10:41:15;17.67;;;6.10;;
74900;SDS011;63461;51.416;6.758;2023-03-26T10:52:52;5.70;;;2.60;;
74900;SDS011;63461;51.416;6.758;2023-03-26T10:55:38;5.83;;;2.37;;
74900;SDS011;63461;51.416;6.758;2023-03-26T10:58:20;8.23;;;2.90;;
74900;SDS011;63461;51.416;6.758;2023-03-26T11:00:58;9.40;;;5.67;;
74900;SDS011;63461;51.416;6.758;2023-03-26T11:06:24;7.67;;;3.53;;
74900;SDS011;63461;51.416;6.758;2023-03-26T11:09:07;6.43;;;2.80;;
74900;SDS011;63461;51.416;6.758;2023-03-26T11:11:59;4.70;;;2.00;;
74900;SDS011;63461;51.416;6.758;2023-03-26T11:14:54;5.73;;;1.97;;
74900;SDS011;63461;51.416;6.758;2023-03-26T11:17:44;6.13;;;1.47;;
74900;SDS011;63461;51.416;6.758;2023-03-26T11:31:18;7.93;;;4.47;;
74900;SDS011;63461;51.416;6.758;2023-03-26T11:33:57;4.97;;;3.17;;
74900;SDS011;63461;51.416;6.758;2023-03-26T11:36:38;4.63;;;2.40;;
74900;SDS011;63461;51.416;6.758;2023-03-26T11:39:19;6.00;;;2.60;;
74900;SDS011;63461;51.416;6.758;2023-03-26T11:41:48;6.43;;;2.43;;
74900;SDS011;63461;51.416;6.758;2023-03-26T11:44:37;3.10;;;1.67;;
74900;SDS011;63461;51.416;6.758;2023-03-26T11:47:56;3.10;;;1.07;;
74900;SDS011;63461;51.416;6.758;2023-03-26T11:50:32;2.80;;;0.93;;
74900;SDS011;63461;51.416;6.758;2023-03-26T11:53:09;5.83;;;0.90;;
74900;SDS011;63461;51.416;6.758;2023-03-26T11:56:16;1.67;;;0.90;;
74900;SDS011;63461;51.416;6.758;2023-03-26T12:01:27;1.73;;;0.87;;
74900;SDS011;63461;51.416;6.758;2023-03-26T12:04:05;4.87;;;1.20;;
74900;SDS011;63461;51.416;6.758;2023-03-26T12:06:37;3.03;;;1.20;;
74900;SDS011;63461;51.416;6.758;2023-03-26T12:09:15;3.53;;;1.00;;
74900;SDS011;63461;51.416;6.758;2023-03-26T12:11:42;3.20;;;0.93;;
74900;SDS011;63461;51.416;6.758;2023-03-26T12:14:12;2.83;;;1.07;;
74900;SDS011;63461;51.416;6.758;2023-03-26T12:16:58;5.00;;;1.00;;
74900;SDS011;63461;51.416;6.758;2023-03-26T12:19:24;2.60;;;1.10;;
74900;SDS011;63461;51.416;6.758;2023-03-26T12:21:53;1.07;;;0.63;;
74900;SDS011;63461;51.416;6.758;2023-03-26T12:24:26;2.10;;;0.87;;
74900;SDS011;63461;51.416;6.758;2023-03-26T12:26:58;2.17;;;0.83;;
74900;SDS011;63461;51.416;6.758;2023-03-26T12:29:26;1.27;;;0.77;;
74900;SDS011;63461;51.416;6.758;2023-03-26T12:32:06;1.83;;;0.70;;
74900;SDS011;63461;51.416;6.758;2023-03-26T12:34:40;2.17;;;0.70;;
74900;SDS011;63461;51.416;6.758;2023-03-26T12:37:38;19.00;;;8.10;;
74900;SDS011;63461;51.416;6.758;2023-03-26T12:43:19;1.87;;;0.80;;
74900;SDS011;63461;51.416;6.758;2023-03-26T12:45:53;2.83;;;0.77;;
74900;SDS011;63461;51.416;6.758;2023-03-26T12:49:03;2.27;;;0.83;;
74900;SDS011;63461;51.416;6.758;2023-03-26T12:51:50;3.73;;;0.90;;
74900;SDS011;63461;51.416;6.758;2023-03-26T12:57:17;1.53;;;0.93;;
74900;SDS011;63461;51.416;6.758;2023-03-26T13:03:03;1.37;;;0.70;;
74900;SDS011;63461;51.416;6.758;2023-03-26T13:27:09;1.20;;;0.67;;
74900;SDS011;63461;51.416;6.758;2023-03-26T13:42:07;4.00;;;0.70;;
74900;SDS011;63461;51.416;6.758;2023-03-26T13:45:10;2.83;;;0.93;;
74900;SDS011;63461;51.416;6.758;2023-03-26T13:47:41;1.50;;;0.90;;
74900;SDS011;63461;51.416;6.758;2023-03-26T13:53:17;2.50;;;1.10;;
74900;SDS011;63461;51.416;6.758;2023-03-26T13:55:49;2.60;;;1.33;;
74900;SDS011;63461;51.416;6.758;2023-03-26T13:58:23;2.47;;;1.30;;
74900;SDS011;63461;51.416;6.758;2023-03-26T14:01:09;2.33;;;1.27;;
74900;SDS011;63461;51.416;6.758;2023-03-26T14:06:36;3.50;;;1.23;;
74900;SDS011;63461;51.416;6.758;2023-03-26T14:09:09;3.33;;;1.33;;
74900;SDS011;63461;51.416;6.758;2023-03-26T14:11:46;5.83;;;2.17;;
74900;SDS011;63461;51.416;6.758;2023-03-26T14:17:21;4.37;;;1.90;;
74900;SDS011;63461;51.416;6.758;2023-03-26T14:20:19;1.90;;;1.30;;
74900;SDS011;63461;51.416;6.758;2023-03-26T14:28:56;3.70;;;1.53;;
74900;SDS011;63461;51.416;6.758;2023-03-26T14:46:14;2.93;;;1.40;;
74900;SDS011;63461;51.416;6.758;2023-03-26T14:49:08;3.40;;;1.73;;
74900;SDS011;63461;51.416;6.758;2023-03-26T14:51:58;2.63;;;1.40;;
74900;SDS011;63461;51.416;6.758;2023-03-26T14:54:51;3.87;;;1.50;;
74900;SDS011;63461;51.416;6.758;2023-03-26T15:03:13;3.53;;;1.90;;
74900;SDS011;63461;51.416;6.758;2023-03-26T15:09:29;4.40;;;1.87;;
74900;SDS011;63461;51.416;6.758;2023-03-26T15:14:40;3.47;;;1.77;;
74900;SDS011;63461;51.416;6.758;2023-03-26T15:23:32;2.80;;;1.23;;
74900;SDS011;63461;51.416;6.758;2023-03-26T15:43:17;3.67;;;1.70;;
74900;SDS011;63461;51.416;6.758;2023-03-26T15:50:39;7.00;;;1.80;;
74900;SDS011;63461;51.416;6.758;2023-03-26T16:01:59;10.73;;;2.70;;
74900;SDS011;63461;51.416;6.758;2023-03-26T16:04:55;6.00;;;2.77;;
74900;SDS011;63461;51.416;6.758;2023-03-26T16:08:00;6.03;;;2.73;;
74900;SDS011;63461;51.416;6.758;2023-03-26T16:18:29;13.93;;;3.73;;
74900;SDS011;63461;51.416;6.758;2023-03-26T16:24:09;14.90;;;3.73;;
74900;SDS011;63461;51.416;6.758;2023-03-26T16:34:24;15.73;;;3.80;;
74900;SDS011;63461;51.416;6.758;2023-03-26T16:36:53;16.60;;;3.20;;
74900;SDS011;63461;51.416;6.758;2023-03-26T16:39:23;8.73;;;2.20;;
74900;SDS011;63461;51.416;6.758;2023-03-26T16:42:15;15.10;;;3.00;;
74900;SDS011;63461;51.416;6.758;2023-03-26T16:44:51;13.73;;;2.87;;
74900;SDS011;63461;51.416;6.758;2023-03-26T16:47:45;14.03;;;2.73;;
74900;SDS011;63461;51.416;6.758;2023-03-26T16:58:47;16.37;;;3.60;;
74900;SDS011;63461;51.416;6.758;2023-03-26T17:02:06;15.40;;;3.07;;
74900;SDS011;63461;51.416;6.758;2023-03-26T17:04:45;19.30;;;4.03;;
74900;SDS011;63461;51.416;6.758;2023-03-26T17:07:17;19.93;;;3.73;;
74900;SDS011;63461;51.416;6.758;2023-03-26T17:15:01;17.23;;;4.33;;
74900;SDS011;63461;51.416;6.758;2023-03-26T17:31:24;20.43;;;4.50;;
74900;SDS011;63461;51.416;6.758;2023-03-26T17:36:58;31.90;;;8.77;;
74900;SDS011;63461;51.416;6.758;2023-03-26T17:44:57;19.13;;;3.53;;
74900;SDS011;63461;51.416;6.758;2023-03-26T17:50:02;13.50;;;3.20;;
74900;SDS011;63461;51.416;6.758;2023-03-26T17:52:33;28.70;;;7.85;;
74900;SDS011;63461;51.416;6.758;2023-03-26T17:55:13;17.23;;;4.03;;
74900;SDS011;63461;51.416;6.758;2023-03-26T17:57:52;22.37;;;6.13;;
74900;SDS011;63461;51.416;6.758;2023-03-26T18:00:22;23.20;;;6.30;;
74900;SDS011;63461;51.416;6.758;2023-03-26T18:02:56;22.07;;;7.17;;
74900;SDS011;63461;51.416;6.758;2023-03-26T18:05:27;33.30;;;10.03;;
74900;SDS011;63461;51.416;6.758;2023-03-26T18:11:01;13.07;;;4.13;;
74900;SDS011;63461;51.416;6.758;2023-03-26T18:16:14;18.53;;;4.10;;
74900;SDS011;63461;51.416;6.758;2023-03-26T18:19:01;20.67;;;6.20;;
74900;SDS011;63461;51.416;6.758;2023-03-26T18:21:39;21.50;;;5.40;;
74900;SDS011;63461;51.416;6.758;2023-03-26T18:24:06;18.40;;;5.00;;
74900;SDS011;63461;51.416;6.758;2023-03-26T18:26:41;15.90;;;4.43;;
74900;SDS011;63461;51.416;6.758;2023-03-26T18:29:12;18.50;;;4.03;;
74900;SDS011;63461;51.416;6.758;2023-03-26T18:31:48;16.83;;;3.30;;
74900;SDS011;63461;51.416;6.758;2023-03-26T18:34:19;17.87;;;3.40;;
74900;SDS011;63461;51.416;6.758;2023-03-26T18:36:46;17.40;;;3.60;;
74900;SDS011;63461;51.416;6.758;2023-03-26T18:39:25;16.30;;;3.50;;
74900;SDS011;63461;51.416;6.758;2023-03-26T18:41:51;13.10;;;2.70;;
74900;SDS011;63461;51.416;6.758;2023-03-26T18:44:17;14.53;;;3.60;;
74900;SDS011;63461;51.416;6.758;2023-03-26T18:46:44;18.63;;;3.13;;
74900;SDS011;63461;51.416;6.758;2023-03-26T18:49:12;15.17;;;2.47;;
74900;SDS011;63461;51.416;6.758;2023-03-26T18:51:41;12.80;;;3.00;;
74900;SDS011;63461;51.416;6.758;2023-03-26T18:54:08;9.47;;;1.83;;
74900;SDS011;63461;51.416;6.758;2023-03-26T18:56:41;10.03;;;1.97;;
74900;SDS011;63461;51.416;6.758;2023-03-26T18:59:30;14.27;;;2.97;;
74900;SDS011;63461;51.416;6.758;2023-03-26T19:02:03;16.47;;;2.63;;
74900;SDS011;63461;51.416;6.758;2023-03-26T19:04:34;15.63;;;3.10;;
74900;SDS011;63461;51.416;6.758;2023-03-26T19:07:01;13.50;;;2.43;;
74900;SDS011;63461;51.416;6.758;2023-03-26T19:09:31;14.63;;;2.20;;
74900;SDS011;63461;51.416;6.758;2023-03-26T19:14:49;14.53;;;2.70;;
74900;SDS011;63461;51.416;6.758;2023-03-26T19:17:38;6.23;;;1.50;;
74900;SDS011;63461;51.416;6.758;2023-03-26T19:23:12;8.73;;;1.93;;
74900;SDS011;63461;51.416;6.758;2023-03-26T19:28:17;15.30;;;2.23;;
74900;SDS011;63461;51.416;6.758;2023-03-26T19:31:04;10.50;;;2.50;;
74900;SDS011;63461;51.416;6.758;2023-03-26T19:33:32;13.63;;;2.80;;
74900;SDS011;63461;51.416;6.758;2023-03-26T19:36:13;14.03;;;2.93;;
74900;SDS011;63461;51.416;6.758;2023-03-26T19:38:43;17.50;;;2.83;;
74900;SDS011;63461;51.416;6.758;2023-03-26T19:41:33;12.47;;;2.17;;
74900;SDS011;63461;51.416;6.758;2023-03-26T19:44:01;13.23;;;1.90;;
74900;SDS011;63461;51.416;6.758;2023-03-26T19:46:37;10.60;;;2.60;;
74900;SDS011;63461;51.416;6.758;2023-03-26T19:49:25;9.40;;;1.80;;
74900;SDS011;63461;51.416;6.758;2023-03-26T19:52:01;8.07;;;1.50;;
74900;SDS011;63461;51.416;6.758;2023-03-26T19:54:42;13.03;;;2.03;;
74900;SDS011;63461;51.416;6.758;2023-03-26T19:57:15;17.27;;;2.60;;
74900;SDS011;63461;51.416;6.758;2023-03-26T19:59:41;15.57;;;2.20;;
74900;SDS011;63461;51.416;6.758;2023-03-26T20:02:13;14.37;;;2.30;;
74900;SDS011;63461;51.416;6.758;2023-03-26T20:04:40;3.83;;;1.20;;
74900;SDS011;63461;51.416;6.758;2023-03-26T20:07:16;9.57;;;1.87;;
74900;SDS011;63461;51.416;6.758;2023-03-26T20:09:44;9.57;;;1.60;;
74900;SDS011;63461;51.416;6.758;2023-03-26T20:12:11;14.67;;;2.43;;
74900;SDS011;63461;51.416;6.758;2023-03-26T20:14:37;13.93;;;1.70;;
74900;SDS011;63461;51.416;6.758;2023-03-26T20:17:05;12.43;;;2.23;;
74900;SDS011;63461;51.416;6.758;2023-03-26T20:19:40;7.70;;;1.57;;
74900;SDS011;63461;51.416;6.758;2023-03-26T20:22:10;10.70;;;1.90;;
74900;SDS011;63461;51.416;6.758;2023-03-26T20:24:44;10.77;;;1.87;;
74900;SDS011;63461;51.416;6.758;2023-03-26T20:27:11;14.77;;;1.80;;
74900;SDS011;63461;51.416;6.758;2023-03-26T20:29:40;16.53;;;2.27;;
74900;SDS011;63461;51.416;6.758;2023-03-26T20:32:15;19.70;;;5.30;;
74900;SDS011;63461;51.416;6.758;2023-03-26T20:34:43;20.00;;;3.87;;
74900;SDS011;63461;51.416;6.758;2023-03-26T20:37:09;11.17;;;2.80;;
74900;SDS011;63461;51.416;6.758;2023-03-26T20:39:35;10.37;;;2.00;;
74900;SDS011;63461;51.416;6.758;2023-03-26T20:42:02;18.00;;;2.27;;
74900;SDS011;63461;51.416;6.758;2023-03-26T20:44:27;17.50;;;2.10;;
74900;SDS011;63461;51.416;6.758;2023-03-26T20:46:54;13.53;;;2.43;;
74900;SDS011;63461;51.416;6.758;2023-03-26T20:49:23;5.83;;;1.43;;
74900;SDS011;63461;51.416;6.758;2023-03-26T20:51:49;9.57;;;2.07;;
74900;SDS011;63461;51.416;6.758;2023-03-26T20:54:19;13.03;;;2.10;;
74900;SDS011;63461;51.416;6.758;2023-03-26T20:56:50;15.37;;;3.03;;
74900;SDS011;63461;51.416;6.758;2023-03-26T20:59:18;8.13;;;1.17;;
74900;SDS011;63461;51.416;6.758;2023-03-26T21:01:50;11.53;;;2.10;;
74900;SDS011;63461;51.416;6.758;2023-03-26T21:04:19;14.57;;;2.23;;
74900;SDS011;63461;51.416;6.758;2023-03-26T21:06:47;6.30;;;1.27;;
74900;SDS011;63461;51.416;6.758;2023-03-26T21:09:15;6.17;;;1.17;;
74900;SDS011;63461;51.416;6.758;2023-03-26T21:16:42;15.00;;;2.30;;
74900;SDS011;63461;51.416;6.758;2023-03-26T21:19:08;9.83;;;1.97;;
74900;SDS011;63461;51.416;6.758;2023-03-26T21:21:50;14.30;;;1.80;;